x

West Oregon - 275nm West Of Coos Bay, Or (46002) Wave Buoy

10:50pm - Fri 22nd May 2015 All times are UTC.

  • Sig Wave height 5.6ft
  • Peak Period 8s
  • Average Period 6s
  • Wind
    11mph, 16mph gusts
  • Sea Temp 57°f
  • Air Temp 56°f
  • Sea Pressure 1023.6mb

More Historic Weather Station data

Upgrade to MSW Pro to gain access to the past 30 days of data for over 8000 Wavebouys and Weather Stations around the globe.

Join Pro

Comparision Forecast

View Surf forecast
   
Fri 05/22 10:50pm 5.5ft 8s 6s 11 16 mph 1023.6mb 57f 56f
9:50pm 5.5ft 8s 6s 13 16 mph 1023.5mb 57f 56f
8:50pm 5.5ft 8s 6s 11 13 mph 1023.6mb 57f 56f
7:50pm 5ft 8s 6s 11 16 mph 1023.8mb 57f 56f
6:50pm 5.5ft 8s 6s 11 13 mph 1023.4mb 57f 56f
5:50pm 5.5ft 8s 6s 11 13 mph 1023.1mb 56f 56f
4:50pm 6ft 8s 6s 13 16 mph 1022.8mb 56f 56f
3:50pm 6.5ft 8s 6s 11 13 mph 1022.5mb 56f 56f
2:50pm 6.5ft 8s 6s 13 16 mph 1022.2mb 56f 55f
1:50pm 6ft 8s 6s 13 18 mph 1021.7mb 56f 55f
12:50pm 6.5ft 8s 6s 16 20 mph 1021.4mb 56f 55f
11:50am 7ft 8s 6s 16 20 mph 1021.1mb 56f 55f
10:50am 6ft 8s 6s 18 22 mph 1021mb 56f 55f
9:50am 7ft 8s 6s 16 22 mph 1021mb 57f 55f
8:50am 7ft 7s 6s 16 22 mph 1021.1mb 57f 56f
7:50am 6.5ft 7s 6s 16 20 mph 1021.1mb 57f 56f
6:50am 6.5ft 7s 6s 18 22 mph 1021mb 57f 56f
5:50am 6.5ft 11s 6s 20 27 mph 1020.6mb 57f 56f
4:50am 7ft 11s 6s 18 25 mph 1020.1mb 57f 56f
3:50am 7ft 11s 6s 20 25 mph 1019.7mb 57f 56f
2:50am 7ft 11s 6s 20 25 mph 1019.4mb 57f 56f
1:50am 7ft 7s 6s 22 27 mph 1019.5mb 57f 56f
12:50am 6.5ft 8s 6s 18 22 mph 1019.5mb 57f 56f
Thu 05/21 11:50pm 6.5ft 7s 6s 18 22 mph 1019.5mb 57f 55f
10:50pm 6.5ft 11s 6s 16 20 mph 1019.4mb 57f 55f
9:50pm 6.5ft 11s 6s 16 20 mph 1019.3mb 57f 55f
8:50pm 6.5ft 7s 6s 16 20 mph 1019.2mb 57f 55f
7:50pm 7ft 11s 6s 18 22 mph 1019.3mb 57f 55f
6:50pm 7ft 11s 6s 18 22 mph 1019.2mb 57f 55f
5:50pm 7ft 10s 6s 18 22 mph 1019.1mb 57f 55f
4:50pm 6.5ft 11s 6s 18 22 mph 1019mb 56f 55f
3:50pm 6.5ft 10s 6s 18 22 mph 1018.9mb 56f 55f
2:50pm 7ft 10s 6s 16 22 mph 1018.7mb 56f 55f
1:50pm 6.5ft 11s 6s 18 25 mph 1018.4mb 56f 55f
12:50pm 6.5ft 10s 6s 18 22 mph 1018.2mb 56f 55f
11:50am 6.5ft 10s 6s 13 18 mph 1018.3mb 56f 55f
10:50am 6.5ft 11s 6s 18 25 mph 1018.3mb 56f 55f
9:50am 6ft 11s 6s 18 25 mph 1018.4mb 57f 55f
8:50am 6ft 11s 6s 18 22 mph 1018.6mb 57f 55f
7:50am 6ft 11s 6s 16 18 mph 1018.8mb 57f 55f
6:50am 5.5ft 11s 6s 16 20 mph 1018.9mb 57f 56f
5:50am 6ft 11s 6s 16 22 mph 1018.8mb 57f 56f
4:50am 6ft 12s 6s 16 20 mph 1018.6mb 57f 55f
3:50am 6ft 12s 7s 16 20 mph 1018.3mb 57f 55f
2:50am 5.5ft 12s 6s 11 16 mph 1018.4mb 57f 55f
1:50am 6ft 13s 6s 13 20 mph 1018.4mb 57f 55f
12:50am 5.5ft 13s 6s 11 18 mph 1018.6mb 57f 55f
Wed 05/20 11:50pm 6ft 13s 7s 13 18 mph 1019.1mb 57f 56f
10:50pm 5ft 13s 6s 13 16 mph 1019.6mb 57f 55f
9:50pm 6ft 13s 7s 13 16 mph 1019.9mb 57f 55f
8:50pm 5ft 13s 6s 9 13 mph 1020mb 57f 55f
7:50pm 5ft 13s 6s 11 18 mph 1020mb 57f 55f
6:50pm 4.5ft 14s 6s 13 16 mph 1020mb 57f 55f
5:50pm 4.5ft 14s 6s 13 18 mph 1019.9mb 57f 56f
4:50pm 4.5ft 14s 6s 13 18 mph 1020.1mb 56f 54f
3:50pm 5ft 14s 6s 11 16 mph 1020.1mb 56f 55f
2:50pm 5ft 13s 7s 13 20 mph 1020.3mb 57f 55f
1:50pm 4.5ft 14s 6s 13 18 mph 1020.4mb 57f 55f
12:50pm 4.5ft 13s 6s 9 13 mph 1020.6mb 57f 55f
11:50am 4.5ft 10s 5s 11 16 mph 1020.8mb 57f 55f
10:50am 4.5ft 14s 6s 13 18 mph 1020.9mb 57f 54f
9:50am 4.5ft 14s 6s 11 16 mph 1021mb 57f 55f
8:50am 4.5ft 15s 6s 13 18 mph 1021.3mb 57f 55f
7:50am 4.5ft 14s 6s 9 16 mph 1021.8mb 57f 54f
6:50am 4.5ft 15s 6s 11 13 mph 1022.1mb 57f 55f
5:50am 4ft 15s 6s 7 11 mph 1022.4mb 57f 54f
4:50am 4.5ft 11s 6s 13 18 mph 1022.2mb 57f 54f
3:50am 4ft 10s 6s 11 16 mph 1022.3mb 57f 54f
2:50am 4ft 11s 6s 13 20 mph 1022mb 57f 53f
1:50am 4.5ft 10s 6s 9 11 mph 1022.3mb 57f 54f
12:50am 4ft 10s 6s 9 13 mph 1022.5mb 57f 55f
Tue 05/19 11:50pm 4.5ft 11s 6s 9 11 mph 1022.9mb 57f 54f
10:50pm 4.5ft 11s 6s 11 13 mph 1023.4mb 57f 53f
9:50pm 4.5ft 11s 6s 11 13 mph 1023.6mb 57f 55f
8:50pm  -   -   -  11 13 mph 1023.9mb 57f 55f
7:50pm 4.5ft 11s 6s 11 13 mph 1024.1mb 57f 55f
6:50pm 4.5ft 11s 6s 9 11 mph 1024.3mb 57f 55f
5:50pm 5ft 11s 6s 16 20 mph 1024mb 57f 55f
4:50pm 5ft 9s 6s 11 16 mph 1024.5mb 57f 55f
3:50pm 5ft 11s 6s 9 13 mph 1024.5mb 57f 54f
2:50pm 5ft 11s 6s 16 18 mph 1024.2mb 57f 55f
1:50pm 5ft 11s 6s 11 13 mph 1024mb 57f 55f
12:50pm 5ft 11s 7s 11 16 mph 1023.5mb 57f 55f
11:50am 5ft 11s 7s 13 16 mph 1023.3mb 57f 55f
10:50am 5ft 11s 7s 11 16 mph 1023.4mb 57f 55f
9:50am 5ft 11s 7s 9 13 mph 1023.6mb 57f 56f
8:50am 5ft 11s 7s 9 11 mph 1023.9mb 57f 55f
7:50am 5.5ft 11s 7s 11 13 mph 1024mb 57f 55f
6:50am 5ft 11s 7s 11 13 mph 1024.3mb 57f 55f
5:50am 5ft 12s 7s 11 18 mph 1024.3mb 57f 56f
4:50am 5ft 11s 7s 11 13 mph 1023.9mb 57f 56f
3:50am 5ft 11s 6s 11 16 mph 1023.4mb 57f 56f
2:50am 6ft 12s 7s 11 13 mph 1023.1mb 57f 55f
1:50am 5ft 12s 7s 11 13 mph 1023.1mb 57f 55f
12:50am 5ft 11s 7s 11 13 mph 1023.3mb 57f 56f